createdAt,value
2022-09-17T00:01:40.792Z,0.00
2022-09-17T00:06:40.649Z,0.00
2022-09-17T00:11:40.598Z,0.00
2022-09-17T00:16:40.521Z,0.00
2022-09-17T00:21:40.457Z,0.00
2022-09-17T00:26:40.385Z,0.00
2022-09-17T00:31:40.445Z,0.00
2022-09-17T00:36:40.251Z,0.00
2022-09-17T00:41:40.201Z,0.00
2022-09-17T00:46:40.255Z,0.00
2022-09-17T00:51:40.059Z,0.00
2022-09-17T00:56:39.986Z,0.00
2022-09-17T01:01:39.989Z,0.00
2022-09-17T01:06:39.854Z,0.00
2022-09-17T01:11:39.796Z,0.00
2022-09-17T01:16:39.723Z,0.00
2022-09-17T01:21:39.666Z,0.00
2022-09-17T01:26:39.591Z,0.00
2022-09-17T01:31:39.579Z,0.00
2022-09-17T01:36:39.458Z,0.00
2022-09-17T01:41:39.401Z,0.00
2022-09-17T01:46:39.445Z,0.00
2022-09-17T01:51:39.283Z,0.00
2022-09-17T01:56:39.197Z,0.00
2022-09-17T02:01:39.156Z,0.00
2022-09-17T02:06:39.064Z,0.00
2022-09-17T02:11:39.007Z,0.00
2022-09-17T02:16:38.933Z,0.00
2022-09-17T02:21:38.874Z,0.00
2022-09-17T02:26:38.805Z,0.00
2022-09-17T02:31:38.833Z,0.00
2022-09-17T02:36:38.701Z,0.00
2022-09-17T02:41:38.611Z,0.00
2022-09-17T02:46:38.558Z,0.00
2022-09-17T02:51:38.479Z,0.00
2022-09-17T02:56:38.410Z,0.00
2022-09-17T03:01:38.440Z,0.00
2022-09-17T03:06:38.275Z,0.00
2022-09-17T03:11:38.216Z,0.00
2022-09-17T03:16:38.261Z,0.00
2022-09-17T03:21:38.084Z,0.00
2022-09-17T03:26:38.009Z,0.00
2022-09-17T03:31:38.023Z,0.00
2022-09-17T03:36:37.889Z,0.00
2022-09-17T03:41:37.829Z,0.00
2022-09-17T03:46:37.841Z,0.00
2022-09-17T03:51:37.699Z,0.00
2022-09-17T03:56:37.621Z,0.00
2022-09-17T04:01:37.687Z,0.00
2022-09-17T04:06:37.494Z,0.00
2022-09-17T04:11:37.436Z,0.00
2022-09-17T04:16:37.353Z,0.00
2022-09-17T04:21:37.296Z,0.00
2022-09-17T04:26:37.226Z,0.00
2022-09-17T04:31:37.205Z,4.00
2022-09-17T04:36:37.089Z,12.00
2022-09-17T04:41:37.029Z,36.00
2022-09-17T04:46:37.024Z,76.00
2022-09-17T04:51:36.898Z,116.00
2022-09-17T04:56:36.824Z,240.00
2022-09-17T05:01:36.847Z,300.00
2022-09-17T05:06:36.692Z,380.00
2022-09-17T05:11:36.643Z,392.00
2022-09-17T05:16:36.637Z,524.00
2022-09-17T05:21:36.513Z,756.00
2022-09-17T05:26:36.432Z,888.00
2022-09-17T05:31:36.434Z,1156.00
2022-09-17T05:36:36.301Z,1624.00
2022-09-17T05:41:36.242Z,2604.00
2022-09-17T05:46:36.254Z,4292.00
2022-09-17T05:51:36.112Z,3816.00
2022-09-17T05:56:36.041Z,1396.00
2022-09-17T06:01:36.054Z,2060.00
2022-09-17T06:06:35.911Z,14056.00
2022-09-17T06:11:35.854Z,23808.00
2022-09-17T06:16:35.853Z,11260.00
2022-09-17T06:21:35.718Z,12348.00
2022-09-17T06:26:35.663Z,54624.00
2022-09-17T06:31:35.638Z,24480.00
2022-09-17T06:36:35.534Z,27872.00
2022-09-17T06:41:35.457Z,55232.00
2022-09-17T06:46:35.488Z,21632.00
2022-09-17T06:51:35.324Z,17632.00
2022-09-17T06:56:35.270Z,53824.00
2022-09-17T07:01:35.283Z,76384.00
2022-09-17T07:06:35.145Z,29728.00
2022-09-17T07:11:35.062Z,53664.00
2022-09-17T07:16:35.074Z,63360.00
2022-09-17T07:21:34.929Z,47680.00
2022-09-17T07:26:34.883Z,37888.00
2022-09-17T07:31:34.884Z,63872.00
2022-09-17T07:36:34.751Z,13636.00
2022-09-17T07:41:34.668Z,32416.00
2022-09-17T07:46:34.651Z,23008.00
2022-09-17T07:51:34.539Z,88064.00
2022-09-17T07:56:34.481Z,49824.00
2022-09-17T08:01:34.517Z,43360.00
2022-09-17T08:06:34.348Z,9544.00
2022-09-17T08:16:35.296Z,8632.00
2022-09-17T08:21:34.143Z,79616.00
2022-09-17T08:26:34.095Z,91904.00
2022-09-17T08:31:34.066Z,28800.00
2022-09-17T08:36:33.966Z,10300.00
2022-09-17T08:41:33.885Z,9808.00
2022-09-17T08:46:33.932Z,11112.00
2022-09-17T08:51:33.756Z,5328.00
2022-09-17T08:56:33.706Z,7636.00
2022-09-17T09:01:33.684Z,11100.00
2022-09-17T09:06:33.564Z,19648.00
2022-09-17T09:11:33.498Z,14888.00
2022-09-17T09:16:33.518Z,20064.00
2022-09-17T09:21:33.367Z,19296.00
2022-09-17T09:26:33.294Z,13260.00
2022-09-17T09:31:33.389Z,19520.00
2022-09-17T09:36:33.163Z,21888.00
2022-09-17T09:41:33.093Z,22016.00
2022-09-17T09:46:33.140Z,25024.00
2022-09-17T09:51:32.964Z,41120.00
2022-09-17T09:56:32.910Z,26272.00
2022-09-17T10:01:32.970Z,22720.00
2022-09-17T10:06:32.774Z,22816.00
2022-09-17T10:11:32.704Z,20544.00
2022-09-17T10:16:32.693Z,22976.00
2022-09-17T10:21:32.580Z,18464.00
2022-09-17T10:26:32.508Z,18176.00
2022-09-17T10:31:32.503Z,21856.00
2022-09-17T10:36:35.930Z,61856.00
2022-09-17T10:41:32.307Z,66080.00
2022-09-17T10:46:32.293Z,63936.00
2022-09-17T10:51:32.171Z,45952.00
2022-09-17T10:56:32.101Z,12688.00
2022-09-17T11:01:32.063Z,60800.00
2022-09-17T11:06:31.967Z,57504.00
2022-09-17T11:11:31.895Z,35552.00
2022-09-17T11:16:31.897Z,19488.00
2022-09-17T11:21:31.763Z,17248.00
2022-09-17T11:26:31.707Z,15700.00
2022-09-17T11:31:31.752Z,16032.00
2022-09-17T11:36:31.588Z,18816.00
2022-09-17T11:41:31.503Z,14244.00
2022-09-17T11:46:31.486Z,10400.00
2022-09-17T11:51:31.372Z,13304.00
2022-09-17T11:56:31.314Z,12832.00
2022-09-17T12:01:31.295Z,12172.00
2022-09-17T12:06:31.178Z,9248.00
2022-09-17T12:11:31.105Z,7904.00
2022-09-17T12:16:31.101Z,7532.00
2022-09-17T12:21:30.980Z,8532.00
2022-09-17T12:26:30.910Z,6624.00
2022-09-17T12:31:30.896Z,7020.00
2022-09-17T12:36:30.777Z,5424.00
2022-09-17T12:41:30.715Z,8512.00
2022-09-17T12:46:30.699Z,6824.00
2022-09-17T12:51:30.587Z,7404.00
2022-09-17T12:56:30.521Z,6288.00
2022-09-17T13:01:30.449Z,8624.00
2022-09-17T13:06:30.392Z,6840.00
2022-09-17T13:11:30.322Z,6368.00
2022-09-17T13:16:30.342Z,5604.00
2022-09-17T13:21:30.195Z,6524.00
2022-09-17T13:26:30.143Z,6172.00
2022-09-17T13:31:30.118Z,5592.00
2022-09-17T13:36:30.012Z,4940.00
2022-09-17T13:41:29.950Z,4156.00
2022-09-17T13:46:29.956Z,4024.00
2022-09-17T13:51:29.821Z,4056.00
2022-09-17T13:56:29.750Z,4080.00
2022-09-17T14:01:29.689Z,4772.00
2022-09-17T14:06:29.618Z,4684.00
2022-09-17T14:11:29.554Z,4020.00
2022-09-17T14:16:29.562Z,5456.00
2022-09-17T14:21:29.412Z,5932.00
2022-09-17T14:26:29.363Z,6076.00
2022-09-17T14:31:29.338Z,4752.00
2022-09-17T14:36:29.232Z,8564.00
2022-09-17T14:41:29.148Z,4892.00
2022-09-17T14:46:29.138Z,3736.00
2022-09-17T14:51:29.017Z,3432.00
2022-09-17T14:56:28.966Z,3260.00
2022-09-17T15:01:28.982Z,3180.00
2022-09-17T15:06:28.825Z,3180.00
2022-09-17T15:11:28.750Z,3216.00
2022-09-17T15:16:28.816Z,3108.00
2022-09-17T15:21:28.620Z,2956.00
2022-09-17T15:26:28.559Z,3212.00
2022-09-17T15:31:28.518Z,3172.00
2022-09-17T15:36:28.427Z,3448.00
2022-09-17T15:41:28.354Z,3044.00
2022-09-17T15:46:28.383Z,2212.00
2022-09-17T15:51:28.224Z,2408.00
2022-09-17T15:56:28.177Z,2620.00
2022-09-17T16:01:28.136Z,2732.00
2022-09-17T16:06:28.044Z,2576.00
2022-09-17T16:11:27.962Z,2128.00
2022-09-17T16:16:28.012Z,1740.00
2022-09-17T16:21:27.830Z,1516.00
2022-09-17T16:26:27.768Z,1320.00
2022-09-17T16:31:27.776Z,1000.00
2022-09-17T16:36:27.637Z,712.00
2022-09-17T16:41:27.562Z,632.00
2022-09-17T16:46:27.558Z,616.00
2022-09-17T16:51:27.427Z,532.00
2022-09-17T16:56:27.366Z,456.00
2022-09-17T17:01:27.367Z,472.00
2022-09-17T17:06:27.242Z,312.00
2022-09-17T17:11:27.156Z,144.00
2022-09-17T17:16:27.157Z,76.00
2022-09-17T17:21:27.020Z,64.00
2022-09-17T17:26:26.970Z,48.00
2022-09-17T17:31:26.986Z,20.00
2022-09-17T17:36:26.838Z,4.00
2022-09-17T17:41:26.754Z,0.00
2022-09-17T17:46:26.738Z,0.00
2022-09-17T17:51:26.626Z,0.00
2022-09-17T17:56:26.570Z,0.00
2022-09-17T18:01:26.528Z,0.00
2022-09-17T18:06:26.443Z,0.00
2022-09-17T18:11:26.368Z,0.00
2022-09-17T18:16:26.399Z,0.00
2022-09-17T18:21:26.240Z,0.00
2022-09-17T18:26:26.189Z,0.00
2022-09-17T18:31:26.159Z,0.00
2022-09-17T18:36:26.058Z,0.00
2022-09-17T18:41:25.976Z,0.00
2022-09-17T18:46:26.037Z,0.00
2022-09-17T18:51:25.843Z,0.00
2022-09-17T18:56:25.794Z,0.00
2022-09-17T19:01:25.872Z,0.00
2022-09-17T19:06:25.657Z,0.00
2022-09-17T19:11:25.576Z,0.00
2022-09-17T19:16:25.603Z,0.00
2022-09-17T19:21:25.444Z,0.00
2022-09-17T19:26:25.397Z,0.00
2022-09-17T19:31:25.425Z,0.00
2022-09-17T19:36:25.255Z,0.00
2022-09-17T19:41:25.186Z,0.00
2022-09-17T19:46:25.137Z,0.00
2022-09-17T19:51:25.049Z,0.00
2022-09-17T19:56:24.992Z,0.00
2022-09-17T20:01:25.062Z,0.00
2022-09-17T20:06:24.860Z,0.00
2022-09-17T20:11:24.790Z,0.00
2022-09-17T20:16:24.814Z,0.00
2022-09-17T20:21:24.666Z,0.00
2022-09-17T20:26:24.596Z,0.00
2022-09-17T20:31:24.578Z,0.00
2022-09-17T20:36:24.466Z,0.00
2022-09-17T20:41:24.405Z,0.00
2022-09-17T20:46:28.664Z,0.00
2022-09-17T20:51:24.272Z,0.00
2022-09-17T20:56:24.208Z,0.00
2022-09-17T21:01:24.211Z,0.00
2022-09-17T21:06:24.072Z,0.00
2022-09-17T21:11:23.998Z,0.00
2022-09-17T21:16:24.032Z,0.00
2022-09-17T21:21:23.868Z,0.00
2022-09-17T21:26:23.812Z,0.00
2022-09-17T21:31:26.292Z,0.00
2022-09-17T21:36:23.682Z,0.00
2022-09-17T21:41:23.626Z,0.00
2022-09-17T21:46:23.614Z,0.00
2022-09-17T21:51:23.485Z,0.00
2022-09-17T21:56:23.418Z,0.00
2022-09-17T22:01:23.422Z,0.00
2022-09-17T22:06:23.287Z,0.00
2022-09-17T22:11:23.223Z,0.00
2022-09-17T22:16:23.267Z,0.00
2022-09-17T22:21:23.093Z,0.00
2022-09-17T22:26:23.023Z,0.00
2022-09-17T22:31:23.071Z,0.00
2022-09-17T22:36:22.892Z,0.00
2022-09-17T22:41:22.830Z,0.00
2022-09-17T22:46:22.913Z,0.00
2022-09-17T22:51:22.698Z,0.00
2022-09-17T22:56:22.630Z,0.00
2022-09-17T23:01:22.686Z,0.00
2022-09-17T23:06:22.501Z,0.00
2022-09-17T23:11:22.426Z,0.00
2022-09-17T23:16:22.449Z,0.00
2022-09-17T23:21:22.303Z,0.00
2022-09-17T23:26:22.240Z,0.00
2022-09-17T23:31:22.266Z,0.00
2022-09-17T23:36:22.112Z,0.00
2022-09-17T23:41:22.047Z,0.00
2022-09-17T23:46:22.055Z,0.00
2022-09-17T23:51:21.914Z,0.00
2022-09-17T23:56:21.846Z,0.00
